Time;durP1;ratioP1;P1;durP2;ratioP2;P2;SDS_P1;SDS_P2;PMS_P1;PMS_P2;Temp;Humidity;BMP_temperature;BMP_pressure;BME280_temperature;BME280_humidity;BME280_pressure;Samples;Min_cycle;Max_cycle;Signal;HPM_P1;HPM_P2
2022/07/29 00:01:34;;;;;;;2.60;1.00;;;21.40;48.30;;;;;;4875660;29;20061;-62
2022/07/29 00:04:02;;;;;;;6.50;1.27;;;21.50;48.20;;;;;;4873406;29;20136;-60
2022/07/29 00:06:30;;;;;;;1.55;0.90;;;21.40;48.30;;;;;;4865979;29;20137;-61
2022/07/29 00:08:57;;;;;;;3.83;1.30;;;21.40;48.30;;;;;;4863413;29;20109;-63
2022/07/29 00:11:24;;;;;;;6.72;0.93;;;21.40;48.40;;;;;;4860262;29;20049;-61
2022/07/29 00:13:51;;;;;;;3.35;1.50;;;21.30;48.30;;;;;;4865072;29;20861;-61
2022/07/29 00:16:19;;;;;;;3.30;1.20;;;21.30;48.30;;;;;;4864871;29;20056;-62
2022/07/29 00:18:46;;;;;;;3.15;1.10;;;21.30;48.20;;;;;;4857915;29;20046;-61
2022/07/29 00:21:13;;;;;;;2.38;0.95;;;21.20;48.30;;;;;;4863771;29;20041;-64
2022/07/29 00:23:41;;;;;;;3.58;0.95;;;21.30;48.10;;;;;;4873098;29;20135;-62
2022/07/29 00:26:08;;;;;;;3.55;1.00;;;21.30;48.10;;;;;;4874960;29;20112;-63
2022/07/29 00:28:35;;;;;;;3.83;1.40;;;21.20;48.20;;;;;;4869706;29;20151;-61
2022/07/29 00:31:02;;;;;;;3.38;1.00;;;21.20;48.20;;;;;;4858962;29;20053;-61
2022/07/29 00:33:29;;;;;;;3.13;0.90;;;21.20;48.10;;;;;;4871110;29;20048;-64
2022/07/29 00:35:55;;;;;;;2.63;0.90;;;21.20;48.10;;;;;;4874672;29;20049;-61
2022/07/29 00:38:22;;;;;;;3.42;0.80;;;21.20;48.20;;;;;;4873211;29;20058;-64
2022/07/29 00:40:50;;;;;;;1.35;0.85;;;21.20;48.20;;;;;;4868157;29;21695;-62
2022/07/29 00:43:18;;;;;;;3.53;1.20;;;21.20;48.30;;;;;;4865571;29;20057;-62
2022/07/29 00:45:45;;;;;;;4.80;0.95;;;21.20;48.30;;;;;;4866477;29;20426;-62
2022/07/29 00:48:12;;;;;;;1.85;1.05;;;21.20;48.30;;;;;;4876727;29;20551;-63
2022/07/29 00:50:39;;;;;;;2.33;0.90;;;21.20;48.40;;;;;;4875382;29;20053;-63
2022/07/29 00:53:09;;;;;;;2.72;0.80;;;21.10;48.50;;;;;;4871617;29;20109;-62
2022/07/29 00:55:37;;;;;;;3.97;0.90;;;21.10;48.30;;;;;;4867356;29;20065;-61
2022/07/29 00:58:06;;;;;;;1.95;0.98;;;21.10;48.30;;;;;;4858872;29;20064;-62
2022/07/29 01:00:33;;;;;;;2.20;1.10;;;21.10;48.20;;;;;;4861220;29;20072;-63
2022/07/29 01:03:00;;;;;;;1.70;0.70;;;21.10;48.30;;;;;;4864797;29;20077;-61
2022/07/29 01:05:29;;;;;;;2.33;1.20;;;21.10;48.50;;;;;;4862708;29;20063;-61
2022/07/29 01:07:57;;;;;;;;;;;21.10;48.90;;;;;;4865788;29;20049;-62
2022/07/29 01:10:25;;;;;;;2.97;1.25;;;21.10;49.10;;;;;;4864874;29;19928;-62
2022/07/29 01:12:54;;;;;;;5.05;1.40;;;21.10;49.40;;;;;;4864250;29;20141;-62
2022/07/29 01:15:23;;;;;;;3.87;1.27;;;21.10;49.60;;;;;;4865757;29;20052;-63
2022/07/29 01:17:57;;;;;;;3.67;1.08;;;21.00;49.50;;;;;;4866621;29;20489;-61
2022/07/29 01:20:29;;;;;;;5.57;1.05;;;21.00;49.80;;;;;;4871103;29;20045;-62
2022/07/29 01:23:37;;;;;;;3.33;1.17;;;21.00;50.00;;;;;;4869106;29;20060;-62
2022/07/29 01:26:46;;;;;;;3.85;1.40;;;21.00;50.30;;;;;;4841254;29;20049;-61
2022/07/29 01:29:19;;;;;;;3.72;1.05;;;20.90;50.30;;;;;;4828702;29;20098;-62
2022/07/29 01:31:49;;;;;;;3.13;1.35;;;20.90;50.40;;;;;;4830010;29;20076;-60
2022/07/29 01:34:24;;;;;;;3.38;1.23;;;20.90;50.50;;;;;;4851111;29;20426;-61
2022/07/29 01:36:58;;;;;;;3.97;1.58;;;20.90;50.50;;;;;;4863948;29;20048;-61
2022/07/29 01:39:29;;;;;;;3.85;1.30;;;20.90;50.50;;;;;;4869763;29;20045;-63
2022/07/29 01:42:05;;;;;;;2.95;1.38;;;20.90;50.50;;;;;;4867099;29;20041;-63
2022/07/29 01:44:38;;;;;;;2.63;1.20;;;20.90;50.60;;;;;;4869120;29;20072;-62
2022/07/29 01:47:11;;;;;;;3.58;1.20;;;20.90;50.70;;;;;;4864553;29;20397;-61
2022/07/29 01:49:43;;;;;;;4.57;1.20;;;21.00;50.60;;;;;;4865003;29;20049;-61
2022/07/29 01:52:19;;;;;;;3.00;1.17;;;20.90;50.50;;;;;;4866268;29;20047;-62
2022/07/29 01:54:53;;;;;;;3.72;1.10;;;20.90;50.40;;;;;;4866751;29;20041;-62
2022/07/29 01:57:23;;;;;;;7.05;1.13;;;20.90;50.40;;;;;;4866727;29;20419;-61
2022/07/29 01:59:53;;;;;;;2.50;1.15;;;20.90;50.50;;;;;;4867765;29;20373;-61
2022/07/29 02:02:22;;;;;;;2.80;1.00;;;20.80;50.60;;;;;;4865017;29;20041;-63
2022/07/29 02:04:51;;;;;;;1.98;0.90;;;20.80;50.70;;;;;;4867568;29;20051;-62
2022/07/29 02:07:21;;;;;;;3.15;0.85;;;20.80;50.80;;;;;;4876186;29;20048;-61
2022/07/29 02:09:50;;;;;;;2.90;1.33;;;20.80;50.70;;;;;;4872334;29;20048;-62
2022/07/29 02:12:20;;;;;;;2.17;0.82;;;20.80;50.70;;;;;;4875981;29;20519;-63
2022/07/29 02:14:49;;;;;;;3.83;1.20;;;20.80;50.70;;;;;;4873734;29;20060;-63
2022/07/29 02:17:20;;;;;;;;;;;20.80;50.60;;;;;;4864697;29;20065;-62
2022/07/29 02:19:49;;;;;;;3.10;0.90;;;20.80;50.80;;;;;;4867153;29;19955;-65
2022/07/29 02:22:19;;;;;;;2.50;0.88;;;20.80;50.70;;;;;;4865626;29;20042;-63
2022/07/29 02:24:47;;;;;;;4.47;1.40;;;20.80;50.70;;;;;;4868411;29;20046;-63
2022/07/29 02:27:15;;;;;;;1.90;0.82;;;20.80;50.90;;;;;;4863812;29;20056;-63
2022/07/29 02:29:43;;;;;;;3.67;0.90;;;20.80;51.10;;;;;;4866805;29;20507;-64
2022/07/29 02:32:12;;;;;;;2.22;1.05;;;20.80;51.40;;;;;;4872561;29;20052;-62
2022/07/29 02:34:41;;;;;;;1.92;1.08;;;20.70;51.70;;;;;;4871709;29;20037;-64
2022/07/29 02:37:10;;;;;;;4.72;1.35;;;20.70;51.90;;;;;;4869567;29;20053;-61
2022/07/29 02:39:38;;;;;;;3.20;0.95;;;20.70;52.30;;;;;;4873948;29;20045;-62
2022/07/29 02:42:08;;;;;;;3.13;1.00;;;20.60;52.60;;;;;;4868502;29;20102;-62
2022/07/29 02:44:35;;;;;;;2.38;1.00;;;20.60;53.10;;;;;;4865495;29;20057;-62
2022/07/29 02:47:11;;;;;;;2.80;1.08;;;20.60;53.50;;;;;;4868754;29;20491;-61
2022/07/29 02:49:43;;;;;;;3.80;1.20;;;20.60;53.80;;;;;;4868757;29;20384;-62
2022/07/29 02:52:17;;;;;;;5.80;1.40;;;20.60;53.70;;;;;;4866509;29;20152;-64
2022/07/29 02:54:52;;;;;;;4.10;1.30;;;20.60;53.90;;;;;;4867549;29;20057;-64
2022/07/29 02:57:23;;;;;;;5.05;1.30;;;20.50;54.50;;;;;;4865292;29;20518;-62
2022/07/29 02:59:53;;;;;;;6.57;1.00;;;20.50;54.70;;;;;;4871232;29;20506;-63
2022/07/29 03:02:22;;;;;;;4.10;0.95;;;20.50;55.10;;;;;;4873731;29;20045;-64
2022/07/29 03:04:51;;;;;;;2.13;1.20;;;20.50;55.10;;;;;;4876015;29;20060;-62
2022/07/29 03:07:20;;;;;;;3.38;1.13;;;20.50;55.10;;;;;;4873418;29;20049;-62
2022/07/29 03:09:48;;;;;;;3.38;1.30;;;20.40;55.30;;;;;;4869802;29;20057;-62
2022/07/29 03:12:16;;;;;;;1.95;0.80;;;20.50;55.30;;;;;;4863384;29;20045;-62
2022/07/29 03:14:44;;;;;;;2.05;1.00;;;20.50;55.70;;;;;;4863648;29;20067;-63
2022/07/29 03:17:11;;;;;;;2.25;0.93;;;20.50;55.70;;;;;;4862825;29;20089;-64
2022/07/29 03:19:38;;;;;;;3.95;1.30;;;20.50;55.90;;;;;;4866280;29;20491;-61
2022/07/29 03:22:07;;;;;;;6.53;0.98;;;20.40;56.00;;;;;;4864500;29;20064;-62
2022/07/29 03:24:35;;;;;;;2.97;1.10;;;20.40;56.00;;;;;;4871766;29;20053;-63
2022/07/29 03:27:03;;;;;;;4.95;1.35;;;20.40;55.80;;;;;;4878772;29;20064;-63
2022/07/29 03:29:31;;;;;;;4.72;1.40;;;20.30;55.90;;;;;;4874165;29;20114;-62
2022/07/29 03:31:58;;;;;;;2.63;1.05;;;20.40;55.90;;;;;;4867637;29;20059;-61
2022/07/29 03:34:25;;;;;;;2.47;1.20;;;20.30;56.10;;;;;;4865564;29;20650;-63
2022/07/29 03:36:52;;;;;;;4.40;1.30;;;20.30;56.10;;;;;;4863481;29;20056;-61
2022/07/29 03:39:24;;;;;;;3.83;1.08;;;20.30;55.90;;;;;;4869706;29;20045;-64
2022/07/29 03:41:55;;;;;;;3.70;1.25;;;20.20;56.00;;;;;;4863773;29;20071;-62
2022/07/29 03:44:23;;;;;;;2.72;1.10;;;20.20;56.00;;;;;;4866183;29;20049;-62
2022/07/29 03:46:53;;;;;;;3.42;1.05;;;20.20;56.30;;;;;;4864635;29;20049;-61
2022/07/29 03:49:22;;;;;;;2.67;1.02;;;20.10;56.30;;;;;;4863416;29;20048;-63
2022/07/29 03:51:50;;;;;;;3.72;1.20;;;20.10;56.00;;;;;;4872481;29;20144;-63
2022/07/29 03:54:17;;;;;;;3.70;1.30;;;20.10;55.50;;;;;;4870431;29;20045;-61
2022/07/29 03:56:50;;;;;;;4.30;1.40;;;20.10;55.40;;;;;;4872263;29;20121;-62
2022/07/29 03:59:19;;;;;;;4.03;1.13;;;20.10;55.50;;;;;;4864081;29;20425;-61
2022/07/29 04:01:47;;;;;;;2.85;1.00;;;20.00;55.60;;;;;;4866352;29;20060;-62
2022/07/29 04:04:14;;;;;;;4.00;1.58;;;20.00;55.60;;;;;;4876066;29;20141;-63
2022/07/29 04:06:42;;;;;;;4.32;1.67;;;19.90;55.60;;;;;;4874800;29;20041;-63
2022/07/29 04:09:10;;;;;;;5.53;1.25;;;20.00;55.10;;;;;;4866447;29;20057;-62
2022/07/29 04:11:38;;;;;;;5.88;1.17;;;20.00;54.90;;;;;;4866121;29;20510;-61
2022/07/29 04:14:07;;;;;;;3.92;1.30;;;20.00;54.90;;;;;;4873055;29;20086;-63
2022/07/29 04:16:34;;;;;;;8.88;2.05;;;20.00;54.80;;;;;;4864100;29;20053;-62
2022/07/29 04:19:02;;;;;;;3.75;1.30;;;20.00;54.90;;;;;;4876545;29;20127;-61
2022/07/29 04:21:28;;;;;;;3.92;1.30;;;20.00;55.00;;;;;;4867156;29;20108;-61
2022/07/29 04:23:55;;;;;;;4.75;1.52;;;20.10;54.50;;;;;;4866349;29;20491;-62
2022/07/29 04:26:22;;;;;;;3.28;1.25;;;20.10;54.40;;;;;;4865231;29;20049;-62
2022/07/29 04:28:49;;;;;;;4.32;1.60;;;20.10;54.10;;;;;;4867624;29;20049;-62
2022/07/29 04:31:17;;;;;;;5.10;1.48;;;20.10;54.20;;;;;;4866881;29;20048;-62
2022/07/29 04:33:44;;;;;;;4.25;1.27;;;20.10;54.20;;;;;;4869480;29;20061;-60
2022/07/29 04:36:11;;;;;;;2.90;1.13;;;20.00;54.20;;;;;;4865244;29;20052;-63
2022/07/29 04:38:39;;;;;;;3.70;1.20;;;20.10;54.20;;;;;;4866705;29;20113;-61
2022/07/29 04:41:08;;;;;;;8.30;1.50;;;20.00;54.40;;;;;;4864159;29;20143;-63
2022/07/29 04:43:35;;;;;;;4.18;1.48;;;20.00;54.40;;;;;;4867060;29;20053;-61
2022/07/29 04:46:02;;;;;;;3.95;1.42;;;20.00;54.60;;;;;;4866276;29;20485;-61
2022/07/29 04:48:30;;;;;;;4.18;1.33;;;20.10;54.70;;;;;;4867343;29;20173;-62
2022/07/29 04:50:57;;;;;;;6.13;1.20;;;20.00;54.80;;;;;;4861729;29;20078;-62
2022/07/29 04:53:24;;;;;;;5.13;1.60;;;20.10;55.10;;;;;;4870626;29;20377;-63
2022/07/29 04:55:52;;;;;;;4.28;1.42;;;20.10;55.00;;;;;;4868240;29;20061;-61
2022/07/29 04:58:18;;;;;;;3.50;1.40;;;20.10;54.60;;;;;;4868491;29;20048;-62
2022/07/29 05:00:45;;;;;;;2.63;1.25;;;20.10;54.40;;;;;;4865865;29;20154;-63
2022/07/29 05:03:12;;;;;;;5.60;1.42;;;20.20;54.00;;;;;;4870722;29;20048;-64
2022/07/29 05:05:42;;;;;;;5.93;1.30;;;20.30;53.70;;;;;;4870643;29;20076;-62
2022/07/29 05:08:09;;;;;;;8.93;1.60;;;20.30;53.10;;;;;;4867965;29;20053;-63
2022/07/29 05:10:37;;;;;;;3.80;1.20;;;20.30;53.00;;;;;;4872304;29;20444;-62
2022/07/29 05:13:06;;;;;;;5.70;1.45;;;20.40;52.90;;;;;;4872350;29;20045;-62
2022/07/29 05:15:33;;;;;;;4.53;1.27;;;20.40;52.70;;;;;;4870354;29;20151;-61
2022/07/29 05:18:00;;;;;;;4.05;1.30;;;20.50;52.70;;;;;;4867710;29;20174;-62
2022/07/29 05:20:28;;;;;;;5.70;1.38;;;20.40;53.10;;;;;;4870008;29;20051;-62
2022/07/29 05:22:57;;;;;;;3.80;1.27;;;20.40;53.40;;;;;;4864063;29;20060;-63
2022/07/29 05:25:24;;;;;;;3.67;1.15;;;20.50;53.70;;;;;;4864331;29;20049;-61
2022/07/29 05:27:51;;;;;;;2.75;1.10;;;20.50;53.60;;;;;;4870635;29;20075;-63
2022/07/29 05:30:18;;;;;;;3.78;1.23;;;20.50;53.90;;;;;;4869420;29;20491;-63
2022/07/29 05:32:47;;;;;;;12.20;1.50;;;20.50;53.30;;;;;;4868406;29;20056;-61
2022/07/29 05:35:14;;;;;;;6.07;1.48;;;20.40;53.20;;;;;;4864046;29;20049;-62
2022/07/29 05:37:41;;;;;;;4.47;1.60;;;20.50;53.20;;;;;;4869428;29;20072;-64
2022/07/29 05:40:10;;;;;;;4.38;1.65;;;20.40;53.20;;;;;;4866676;29;20045;-61
2022/07/29 05:42:37;;;;;;;3.55;1.65;;;20.40;53.70;;;;;;4862398;29;20141;-62
2022/07/29 05:45:05;;;;;;;3.35;1.65;;;20.40;53.90;;;;;;4872264;29;20076;-63
2022/07/29 05:47:31;;;;;;;3.75;1.60;;;20.50;53.80;;;;;;4865907;29;20056;-61
2022/07/29 05:49:58;;;;;;;6.38;1.50;;;20.50;53.90;;;;;;4870875;29;23812;-63
2022/07/29 05:52:25;;;;;;;5.80;1.33;;;20.50;53.90;;;;;;4869136;29;20064;-60
2022/07/29 05:54:52;;;;;;;2.25;1.25;;;20.50;54.50;;;;;;4867480;29;20057;-62
2022/07/29 05:57:23;;;;;;;9.35;1.65;;;20.50;54.50;;;;;;4871255;29;20146;-62
2022/07/29 05:59:51;;;;;;;5.93;1.25;;;20.40;54.20;;;;;;4867199;29;20048;-62
2022/07/29 06:02:18;;;;;;;3.13;1.20;;;20.40;54.00;;;;;;4864328;29;20045;-62
2022/07/29 06:04:45;;;;;;;7.20;1.52;;;20.40;53.80;;;;;;4868475;29;20053;-62
2022/07/29 06:07:12;;;;;;;4.43;1.38;;;20.40;53.60;;;;;;4868218;29;20045;-60
2022/07/29 06:09:39;;;;;;;3.80;1.33;;;20.40;53.30;;;;;;4867403;29;20045;-63
2022/07/29 06:12:06;;;;;;;3.47;1.10;;;20.50;52.80;;;;;;4869552;29;20055;-63
2022/07/29 06:14:35;;;;;;;3.30;1.20;;;20.50;52.50;;;;;;4867636;29;20060;-63
2022/07/29 06:17:02;;;;;;;4.53;1.40;;;20.50;52.70;;;;;;4864139;29;20116;-62
2022/07/29 06:19:29;;;;;;;3.35;1.20;;;20.50;52.60;;;;;;4871793;29;20484;-62
2022/07/29 06:21:56;;;;;;;5.80;1.63;;;20.60;52.80;;;;;;4867826;29;20057;-62
2022/07/29 06:24:23;;;;;;;5.13;1.10;;;20.60;53.20;;;;;;4864869;29;20067;-62
2022/07/29 06:26:50;;;;;;;4.40;1.65;;;20.70;53.10;;;;;;4865646;29;20555;-63
2022/07/29 06:29:17;;;;;;;5.50;1.63;;;20.90;53.00;;;;;;4870458;29;20051;-62
2022/07/29 06:31:45;;;;;;;4.70;1.20;;;21.00;53.00;;;;;;4876884;29;20095;-62
2022/07/29 06:34:12;;;;;;;5.13;1.20;;;21.00;52.90;;;;;;4874614;29;21001;-64
2022/07/29 06:36:39;;;;;;;4.55;1.30;;;21.10;52.90;;;;;;4864889;29;20096;-62
2022/07/29 06:39:07;;;;;;;6.45;1.50;;;21.00;52.50;;;;;;4868508;29;20049;-61
2022/07/29 06:41:34;;;;;;;3.22;1.17;;;21.10;52.60;;;;;;4865037;29;20102;-62
2022/07/29 06:44:09;;;;;;;3.17;1.02;;;21.10;52.60;;;;;;4863069;29;20059;-61
2022/07/29 06:46:36;;;;;;;1.95;0.82;;;21.10;52.40;;;;;;4867687;29;20106;-62
2022/07/29 06:49:05;;;;;;;3.97;1.40;;;21.20;52.20;;;;;;4866753;29;20088;-64
2022/07/29 06:51:32;;;;;;;3.55;1.40;;;21.20;51.90;;;;;;4866010;29;20045;-63
2022/07/29 06:53:59;;;;;;;5.60;1.33;;;21.30;52.00;;;;;;4865031;29;20086;-62
2022/07/29 06:56:26;;;;;;;5.53;1.48;;;21.30;51.90;;;;;;4868307;29;20053;-62
2022/07/29 06:58:53;;;;;;;4.82;1.45;;;21.30;51.90;;;;;;4870505;29;20055;-64
2022/07/29 07:01:20;;;;;;;5.05;1.50;;;21.40;51.70;;;;;;4867850;29;20732;-61
2022/07/29 07:03:47;;;;;;;3.22;1.38;;;21.40;50.90;;;;;;4868581;29;20054;-64
2022/07/29 07:06:16;;;;;;;3.42;1.27;;;21.40;51.00;;;;;;4869767;29;20055;-63
2022/07/29 07:08:43;;;;;;;4.00;1.75;;;21.40;50.90;;;;;;4868991;29;20056;-63
2022/07/29 07:11:10;;;;;;;4.05;1.80;;;21.40;50.80;;;;;;4866234;29;20394;-61
2022/07/29 07:13:37;;;;;;;4.80;1.70;;;21.40;50.60;;;;;;4864530;29;20096;-62
2022/07/29 07:16:05;;;;;;;5.80;2.17;;;21.50;50.40;;;;;;4865493;29;20055;-62
2022/07/29 07:18:32;;;;;;;4.25;1.40;;;21.50;50.10;;;;;;4858502;29;20052;-63
2022/07/29 07:20:59;;;;;;;3.80;1.40;;;21.50;50.20;;;;;;4866291;29;20056;-61
2022/07/29 07:23:27;;;;;;;3.47;1.45;;;21.60;50.10;;;;;;4865184;29;20064;-63
2022/07/29 07:25:54;;;;;;;3.65;1.35;;;21.60;49.90;;;;;;4855126;29;20045;-62
2022/07/29 07:28:21;;;;;;;2.72;1.20;;;21.80;49.60;;;;;;4868173;29;20045;-61
2022/07/29 07:30:49;;;;;;;4.55;1.42;;;22.00;49.70;;;;;;4866274;29;20060;-63
2022/07/29 07:33:16;;;;;;;4.50;1.83;;;22.10;49.80;;;;;;4868620;29;20123;-63
2022/07/29 07:35:44;;;;;;;4.55;1.58;;;22.10;49.70;;;;;;4866783;29;20143;-62
2022/07/29 07:38:10;;;;;;;6.05;1.20;;;22.20;49.60;;;;;;4866908;29;20041;-62
2022/07/29 07:40:39;;;;;;;3.22;0.95;;;22.30;49.60;;;;;;4870047;29;20055;-62
2022/07/29 07:43:06;;;;;;;5.28;1.55;;;22.30;49.60;;;;;;4861483;29;20053;-63
2022/07/29 07:45:33;;;;;;;3.17;1.23;;;22.30;49.50;;;;;;4866852;29;20118;-61
2022/07/29 07:48:00;;;;;;;2.35;0.98;;;22.30;49.40;;;;;;4866732;29;20057;-63
2022/07/29 07:50:27;;;;;;;4.65;1.10;;;22.30;49.50;;;;;;4867861;29;20056;-61
2022/07/29 07:52:57;;;;;;;4.75;0.95;;;22.30;49.30;;;;;;4864898;29;20045;-63
2022/07/29 07:55:24;;;;;;;5.93;1.40;;;22.50;49.20;;;;;;4865616;29;20057;-61
2022/07/29 07:57:53;;;;;;;3.10;1.20;;;22.60;49.10;;;;;;4867983;29;20117;-61
2022/07/29 08:00:21;;;;;;;2.17;1.10;;;22.70;49.20;;;;;;4867655;29;20084;-61
2022/07/29 08:02:49;;;;;;;4.25;1.33;;;22.90;49.00;;;;;;4867386;29;20572;-61
2022/07/29 08:05:17;;;;;;;8.95;1.17;;;23.00;48.50;;;;;;4868610;29;20118;-62
2022/07/29 08:07:45;;;;;;;3.63;1.10;;;23.10;48.10;;;;;;4866217;29;20109;-62
2022/07/29 08:10:12;;;;;;;3.20;1.17;;;23.30;48.10;;;;;;4869678;29;20419;-63
2022/07/29 08:12:40;;;;;;;4.63;1.30;;;23.30;47.80;;;;;;4863175;29;20049;-63
2022/07/29 08:15:09;;;;;;;5.15;1.08;;;23.50;47.80;;;;;;4856003;29;20060;-63
2022/07/29 08:17:36;;;;;;;3.42;1.38;;;23.50;47.80;;;;;;4861148;29;20045;-63
2022/07/29 08:20:04;;;;;;;2.80;1.10;;;23.60;47.90;;;;;;4867383;29;20079;-63
2022/07/29 08:22:31;;;;;;;4.35;1.00;;;23.80;47.60;;;;;;4868611;29;20051;-62
2022/07/29 08:24:58;;;;;;;3.05;1.05;;;24.00;47.50;;;;;;4869177;29;20048;-62
2022/07/29 08:27:26;;;;;;;2.30;0.98;;;24.20;47.20;;;;;;4870793;29;20492;-62
2022/07/29 08:29:53;;;;;;;2.10;1.15;;;24.40;47.40;;;;;;4869134;29;20444;-62
2022/07/29 08:32:21;;;;;;;1.10;0.80;;;24.60;47.20;;;;;;4868747;29;20048;-62
2022/07/29 08:34:48;;;;;;;1.55;0.90;;;24.60;47.20;;;;;;4863149;29;20049;-62
2022/07/29 08:37:15;;;;;;;3.70;1.20;;;24.80;47.30;;;;;;4865871;29;20042;-63
2022/07/29 08:39:42;;;;;;;4.25;1.20;;;25.00;47.40;;;;;;4867162;29;20173;-63
2022/07/29 08:42:09;;;;;;;3.30;1.45;;;25.10;47.60;;;;;;4865251;29;20121;-64
2022/07/29 08:44:37;;;;;;;4.78;1.17;;;25.10;47.50;;;;;;4865919;29;21920;-62
2022/07/29 08:47:04;;;;;;;3.13;1.10;;;25.10;47.60;;;;;;4865635;29;20108;-61
2022/07/29 08:49:34;;;;;;;2.80;1.35;;;25.20;47.80;;;;;;4866241;29;20132;-61
2022/07/29 08:52:01;;;;;;;2.47;1.30;;;25.20;47.60;;;;;;4865668;29;20048;-63
2022/07/29 08:54:29;;;;;;;2.63;1.27;;;25.20;47.80;;;;;;4865450;29;20582;-62
2022/07/29 08:56:58;;;;;;;2.50;1.13;;;25.20;48.00;;;;;;4863674;29;20068;-62
2022/07/29 08:59:27;;;;;;;3.55;1.63;;;25.30;48.00;;;;;;4862653;29;20051;-63
2022/07/29 09:01:55;;;;;;;4.47;1.08;;;25.40;47.70;;;;;;4865580;29;20132;-63
2022/07/29 09:04:25;;;;;;;4.72;1.45;;;25.50;47.80;;;;;;4866597;29;20049;-63
2022/07/29 09:06:55;;;;;;;2.72;1.10;;;25.60;47.30;;;;;;4866948;29;20045;-62
2022/07/29 09:09:23;;;;;;;5.60;1.52;;;25.70;47.40;;;;;;4865444;29;20049;-63
2022/07/29 09:11:50;;;;;;;1.60;1.02;;;25.80;47.40;;;;;;4863261;29;20047;-61
2022/07/29 09:14:17;;;;;;;4.13;1.45;;;25.90;47.20;;;;;;4864358;29;20379;-61
2022/07/29 09:16:53;;;;;;;3.10;1.40;;;26.00;47.10;;;;;;4864113;29;20053;-62
2022/07/29 09:19:25;;;;;;;2.60;1.20;;;26.10;47.10;;;;;;4865149;29;20045;-62
2022/07/29 09:21:59;;;;;;;4.55;1.40;;;26.10;47.50;;;;;;4867682;29;20117;-63
2022/07/29 09:24:36;;;;;;;4.10;1.40;;;26.00;47.70;;;;;;4865633;29;20057;-62
2022/07/29 09:27:03;;;;;;;6.97;1.50;;;26.10;47.80;;;;;;4867305;29;20399;-63
2022/07/29 09:29:31;;;;;;;4.82;1.60;;;26.30;48.00;;;;;;4866902;29;20514;-62
2022/07/29 09:31:58;;;;;;;4.88;1.55;;;26.40;47.90;;;;;;4866323;29;20147;-63
2022/07/29 09:34:28;;;;;;;5.68;1.70;;;26.60;47.80;;;;;;4867332;29;20041;-63
2022/07/29 09:36:56;;;;;;;5.00;2.28;;;26.60;47.80;;;;;;4862172;29;20648;-61
2022/07/29 09:39:31;;;;;;;4.28;2.15;;;26.70;47.40;;;;;;4872110;29;20045;-63
2022/07/29 09:41:59;;;;;;;4.93;2.00;;;26.80;47.40;;;;;;4866090;29;20048;-62
2022/07/29 09:44:27;;;;;;;7.75;2.55;;;26.90;47.10;;;;;;4868729;29;20037;-63
2022/07/29 09:46:58;;;;;;;6.13;2.80;;;27.00;47.00;;;;;;4868743;29;20045;-63
2022/07/29 09:49:26;;;;;;;4.82;2.70;;;27.20;46.70;;;;;;4867409;29;20393;-64
2022/07/29 09:52:07;;;;;;;5.00;2.22;;;27.20;46.70;;;;;;4868154;29;20049;-62
2022/07/29 09:54:37;;;;;;;5.15;2.20;;;27.20;46.60;;;;;;4867157;29;20053;-63
2022/07/29 09:57:06;;;;;;;4.43;1.98;;;27.30;46.60;;;;;;4869568;29;20055;-63
2022/07/29 09:59:33;;;;;;;6.15;2.00;;;27.40;46.70;;;;;;4870285;29;20045;-62
2022/07/29 10:02:00;;;;;;;4.10;1.90;;;27.60;46.60;;;;;;4871958;29;20072;-62
2022/07/29 10:04:40;;;;;;;4.45;2.28;;;27.60;46.60;;;;;;4872743;29;20057;-61
2022/07/29 10:07:09;;;;;;;4.25;1.65;;;27.60;46.50;;;;;;4869414;29;20051;-63
2022/07/29 10:09:36;;;;;;;4.03;1.63;;;27.60;45.80;;;;;;4869943;29;20037;-62
2022/07/29 10:12:05;;;;;;;3.38;1.42;;;27.60;45.40;;;;;;4870418;29;20049;-63
2022/07/29 10:14:33;;;;;;;4.80;2.47;;;27.80;44.20;;;;;;4864544;29;20049;-62
2022/07/29 10:17:01;;;;;;;6.73;3.67;;;27.90;43.80;;;;;;4863025;29;20045;-63
2022/07/29 10:19:30;;;;;;;11.13;4.55;;;27.80;43.50;;;;;;4871329;29;20053;-63
2022/07/29 10:21:58;;;;;;;11.07;4.88;;;27.90;43.20;;;;;;4867513;29;20278;-64
2022/07/29 10:24:27;;;;;;;12.45;4.72;;;28.00;42.70;;;;;;4877452;29;20089;-64
2022/07/29 10:26:56;;;;;;;9.80;5.07;;;28.10;42.60;;;;;;4873047;29;20045;-62
2022/07/29 10:29:23;;;;;;;7.97;4.63;;;28.20;42.50;;;;;;4870302;29;20483;-63
2022/07/29 10:32:03;;;;;;;8.65;4.10;;;28.40;42.10;;;;;;4875166;29;20057;-63
2022/07/29 10:34:37;;;;;;;6.40;3.50;;;28.50;41.90;;;;;;4871085;29;20140;-63
2022/07/29 10:37:14;;;;;;;7.13;3.30;;;28.60;41.90;;;;;;4871572;29;20109;-63
2022/07/29 10:39:56;;;;;;;6.72;3.00;;;28.60;41.90;;;;;;4878877;29;20056;-62
2022/07/29 10:42:25;;;;;;;6.93;3.47;;;28.50;41.70;;;;;;4879475;29;20144;-62
2022/07/29 10:44:53;;;;;;;5.70;2.72;;;28.50;41.70;;;;;;4868450;29;20140;-61
2022/07/29 10:47:23;;;;;;;5.25;2.53;;;28.50;41.80;;;;;;4865572;29;20055;-62
2022/07/29 10:50:00;;;;;;;3.92;2.35;;;28.50;41.80;;;;;;4864429;29;20510;-62
2022/07/29 10:52:54;;;;;;;4.32;1.70;;;28.50;42.00;;;;;;4864308;29;20063;-62
2022/07/29 10:55:39;;;;;;;2.75;1.50;;;28.50;42.10;;;;;;4871910;29;20064;-62
2022/07/29 10:58:18;;;;;;;3.25;1.88;;;28.60;42.10;;;;;;4863791;29;20187;-61
2022/07/29 11:00:47;;;;;;;3.72;1.73;;;28.70;42.10;;;;;;4871263;29;20637;-61
2022/07/29 11:03:32;;;;;;;;;;;28.80;41.90;;;;;;4873941;29;20112;-61
2022/07/29 11:05:59;;;;;;;6.30;2.03;;;28.90;41.90;;;;;;4875099;29;20018;-64
2022/07/29 11:08:26;;;;;;;3.55;1.67;;;28.80;41.70;;;;;;4871225;29;20046;-62
2022/07/29 11:11:31;;;;;;;3.80;2.10;;;28.80;41.50;;;;;;4870516;29;20049;-61
2022/07/29 11:13:58;;;;;;;4.68;1.85;;;28.80;41.40;;;;;;4870068;29;20052;-64
2022/07/29 11:16:25;;;;;;;3.55;2.28;;;28.90;41.40;;;;;;4864912;29;20060;-64
2022/07/29 11:19:21;;;;;;;5.68;2.17;;;29.00;41.40;;;;;;4869920;29;20444;-63
2022/07/29 11:21:49;;;;;;;5.25;2.72;;;29.20;41.20;;;;;;4869602;29;20601;-62
2022/07/29 11:24:20;;;;;;;8.82;3.65;;;29.20;41.20;;;;;;4869109;29;20392;-63
2022/07/29 11:27:11;;;;;;;6.55;3.70;;;29.30;41.10;;;;;;4863513;29;20113;-63
2022/07/29 11:29:41;;;;;;;6.60;2.92;;;29.30;41.00;;;;;;4866371;29;20060;-64
2022/07/29 11:32:14;;;;;;;9.13;3.20;;;29.30;40.80;;;;;;4871160;29;20049;-62
2022/07/29 11:34:41;;;;;;;8.65;2.85;;;29.20;40.60;;;;;;4869919;29;20057;-63
2022/07/29 11:37:26;;;;;;;4.93;2.80;;;29.20;40.30;;;;;;4861362;29;20061;-62
2022/07/29 11:40:12;;;;;;;8.15;4.05;;;29.20;40.50;;;;;;4865026;29;20069;-64
2022/07/29 11:42:51;;;;;;;10.38;4.53;;;29.30;40.30;;;;;;4861870;29;20042;-62
2022/07/29 11:45:31;;;;;;;7.45;4.07;;;29.40;40.30;;;;;;4867290;29;20057;-62
2022/07/29 11:48:00;;;;;;;5.88;3.55;;;29.40;40.10;;;;;;4874943;29;20503;-63
2022/07/29 11:50:35;;;;;;;6.05;3.20;;;29.40;39.80;;;;;;4875845;29;20037;-63
2022/07/29 11:53:04;;;;;;;6.47;2.63;;;29.40;39.90;;;;;;4873708;29;20057;-62
2022/07/29 11:55:35;;;;;;;;;;;29.20;39.90;;;;;;4877107;29;20060;-62
2022/07/29 11:58:04;;;;;;;5.15;2.50;;;29.30;39.90;;;;;;4874009;29;19927;-64
2022/07/29 12:00:32;;;;;;;4.45;2.45;;;29.30;39.90;;;;;;4869668;29;20146;-63
2022/07/29 12:03:01;;;;;;;7.57;2.60;;;29.40;39.90;;;;;;4876715;29;20435;-63
2022/07/29 12:05:36;;;;;;;3.88;2.00;;;29.50;39.80;;;;;;4876095;29;20117;-63
2022/07/29 12:08:08;;;;;;;4.28;1.98;;;29.50;39.70;;;;;;4874527;29;20049;-62
2022/07/29 12:10:35;;;;;;;4.28;2.25;;;29.50;39.60;;;;;;4873662;29;20068;-61
2022/07/29 12:13:04;;;;;;;4.65;2.20;;;29.50;39.40;;;;;;4866589;29;20064;-63
2022/07/29 12:15:32;;;;;;;4.10;1.80;;;29.60;39.00;;;;;;4876661;29;20502;-61
2022/07/29 12:17:59;;;;;;;3.95;1.88;;;29.60;38.90;;;;;;4866905;29;20475;-63
2022/07/29 12:20:28;;;;;;;4.35;1.83;;;29.70;39.10;;;;;;4875463;29;20411;-62
2022/07/29 12:22:56;;;;;;;3.22;1.88;;;29.60;38.80;;;;;;4869090;29;20119;-63
2022/07/29 12:25:26;;;;;;;3.20;1.60;;;29.60;38.90;;;;;;4869507;29;20041;-61
2022/07/29 12:28:00;;;;;;;3.30;1.88;;;29.60;38.90;;;;;;4870029;29;20049;-63
2022/07/29 12:30:39;;;;;;;3.13;1.50;;;29.60;38.70;;;;;;4872766;29;20068;-63
2022/07/29 12:33:17;;;;;;;;;;;29.60;38.80;;;;;;4866694;29;20558;-63
2022/07/29 12:35:47;;;;;;;3.08;1.70;;;29.50;38.90;;;;;;4869085;29;19936;-63
2022/07/29 12:38:15;;;;;;;6.65;1.85;;;29.40;38.80;;;;;;4867833;29;20045;-65
2022/07/29 12:40:44;;;;;;;4.88;1.48;;;29.30;39.00;;;;;;4869595;29;20072;-63
2022/07/29 12:43:13;;;;;;;4.07;1.40;;;29.30;39.00;;;;;;4867269;29;20073;-63
2022/07/29 12:45:44;;;;;;;3.28;1.52;;;29.30;39.10;;;;;;4865025;29;20155;-62
2022/07/29 12:48:11;;;;;;;2.20;1.48;;;29.30;39.30;;;;;;4871145;29;20057;-62
2022/07/29 12:50:54;;;;;;;3.25;1.67;;;29.40;39.20;;;;;;4874347;29;20053;-63
2022/07/29 12:53:21;;;;;;;3.95;1.65;;;29.50;39.20;;;;;;4873982;29;20136;-63
2022/07/29 12:55:51;;;;;;;3.17;1.40;;;29.50;39.10;;;;;;4870910;29;20054;-64
2022/07/29 12:58:29;;;;;;;2.10;1.60;;;29.40;39.20;;;;;;4872381;29;20226;-62
2022/07/29 13:01:09;;;;;;;3.30;1.67;;;29.40;39.20;;;;;;4870850;29;20079;-62